Time;durP1;ratioP1;P1;durP2;ratioP2;P2;SDS_P1;SDS_P2;PMS_P1;PMS_P2;Temp;Humidity;BMP_temperature;BMP_pressure;BME280_temperature;BME280_humidity;BME280_pressure;Samples;Min_cycle;Max_cycle;Signal;HPM_P1;HPM_P2
2023/01/13 00:00:02;;;;;;;33.13;5.70;;;8.80;99.90;;;;;;6266912;22;20026;-84
2023/01/13 00:02:28;;;;;;;28.67;4.97;;;8.70;99.90;;;;;;6267898;22;20101;-83
2023/01/13 00:04:54;;;;;;;35.75;5.25;;;8.60;99.90;;;;;;6242384;22;20023;-83
2023/01/13 00:07:20;;;;;;;27.30;5.47;;;8.50;99.90;;;;;;6269287;22;20028;-83
2023/01/13 00:09:45;;;;;;;25.60;4.88;;;8.40;99.90;;;;;;6267256;22;20057;-84
2023/01/13 00:12:11;;;;;;;31.08;4.47;;;8.40;99.90;;;;;;6268970;22;20019;-84
2023/01/13 00:14:37;;;;;;;36.80;5.38;;;8.40;99.90;;;;;;6269247;22;20131;-84
2023/01/13 00:17:03;;;;;;;36.72;5.38;;;8.30;99.90;;;;;;6242741;22;20024;-84
2023/01/13 00:19:29;;;;;;;35.25;6.15;;;8.30;99.90;;;;;;6269290;22;20125;-84
2023/01/13 00:21:55;;;;;;;33.17;5.75;;;8.20;99.90;;;;;;6243985;22;20367;-84
2023/01/13 00:24:21;;;;;;;41.33;6.18;;;8.20;99.90;;;;;;6242995;22;20482;-84
2023/01/13 00:26:47;;;;;;;37.90;6.30;;;8.10;99.90;;;;;;6248471;22;20019;-83
2023/01/13 00:29:12;;;;;;;36.95;6.35;;;8.50;99.90;;;;;;6248154;22;20031;-84
2023/01/13 00:31:38;;;;;;;40.38;7.38;;;8.10;99.90;;;;;;6274518;22;20042;-84
2023/01/13 00:34:04;;;;;;;39.13;6.43;;;8.00;99.90;;;;;;6274174;22;20098;-84
2023/01/13 00:36:32;;;;;;;46.47;6.90;;;8.00;99.90;;;;;;6274762;22;20019;-85
2023/01/13 00:38:58;;;;;;;47.15;6.95;;;7.90;99.90;;;;;;6273392;22;20026;-84
2023/01/13 00:41:26;;;;;;;42.53;6.68;;;7.90;99.90;;;;;;6274900;22;20019;-84
2023/01/13 00:43:51;;;;;;;42.90;6.80;;;7.90;99.90;;;;;;6272848;22;20213;-84
2023/01/13 00:46:20;;;;;;;40.20;6.75;;;7.90;99.90;;;;;;6273438;22;20630;-84
2023/01/13 00:48:46;;;;;;;41.45;6.18;;;7.90;99.90;;;;;;6248503;22;20051;-84
2023/01/13 00:51:15;;;;;;;48.85;6.88;;;7.90;99.90;;;;;;6275082;22;20011;-84
2023/01/13 00:53:44;;;;;;;56.75;7.82;;;7.90;99.90;;;;;;6273740;22;20015;-84
2023/01/13 00:56:16;;;;;;;47.35;7.15;;;7.80;99.90;;;;;;6274467;22;20069;-83
2023/01/13 00:58:44;;;;;;;43.33;8.35;;;7.80;99.90;;;;;;6246796;22;20023;-84
2023/01/13 01:01:12;;;;;;;46.75;7.97;;;7.70;99.90;;;;;;6274084;22;20379;-84
2023/01/13 01:03:38;;;;;;;37.97;6.88;;;7.70;99.90;;;;;;6274719;22;20018;-84
2023/01/13 01:06:08;;;;;;;46.15;6.95;;;7.70;99.90;;;;;;6273537;22;20347;-83
2023/01/13 01:08:34;;;;;;;43.55;6.47;;;7.60;99.90;;;;;;6248864;22;20039;-84
2023/01/13 01:11:05;;;;;;;39.30;6.15;;;7.60;99.90;;;;;;6273766;22;20023;-83
2023/01/13 01:13:31;;;;;;;39.40;6.88;;;7.60;99.90;;;;;;6272811;22;20043;-83
2023/01/13 01:15:57;;;;;;;44.85;7.47;;;7.60;99.90;;;;;;6273815;22;20077;-84
2023/01/13 01:18:23;;;;;;;46.88;7.63;;;7.60;99.90;;;;;;6248872;22;20015;-83
2023/01/13 01:20:49;;;;;;;34.20;6.47;;;7.50;99.90;;;;;;6247354;22;20354;-83
2023/01/13 01:23:14;;;;;;;42.25;6.93;;;7.70;99.90;;;;;;6273298;22;20016;-83
2023/01/13 01:25:40;;;;;;;49.40;8.77;;;7.60;99.90;;;;;;6274197;22;20343;-83
2023/01/13 01:28:06;;;;;;;44.03;6.93;;;7.50;99.90;;;;;;6267419;22;20344;-84
2023/01/13 01:30:31;;;;;;;41.05;7.15;;;7.80;99.90;;;;;;6268139;22;20054;-83
2023/01/13 01:32:57;;;;;;;38.35;7.10;;;7.40;99.90;;;;;;6268567;22;20101;-84
2023/01/13 01:35:23;;;;;;;55.28;8.98;;;7.40;99.90;;;;;;6268119;22;20019;-83
2023/01/13 01:37:49;;;;;;;34.92;6.65;;;7.40;99.90;;;;;;6268752;22;20340;-83
2023/01/13 01:40:15;;;;;;;40.47;6.85;;;7.40;99.90;;;;;;6269065;22;20073;-83
2023/01/13 01:45:27;;;;;;;45.83;6.97;;;7.30;99.90;;;;;;6268776;22;20019;-84
2023/01/13 01:47:58;;;;;;;50.42;8.50;;;7.40;99.90;;;;;;6268428;22;20019;-84
2023/01/13 01:50:24;;;;;;;55.53;8.38;;;7.50;99.90;;;;;;6268740;22;20012;-84
2023/01/13 01:52:58;;;;;;;55.70;8.13;;;7.40;99.90;;;;;;6270605;22;20434;-84
2023/01/13 01:55:30;;;;;;;54.97;8.75;;;7.40;99.90;;;;;;6268448;22;20016;-84
2023/01/13 01:58:01;;;;;;;43.70;7.22;;;7.40;99.90;;;;;;6267412;22;20069;-83
2023/01/13 02:00:27;;;;;;;47.35;6.95;;;7.40;99.90;;;;;;6268477;22;20020;-83
2023/01/13 02:02:53;;;;;;;37.95;7.63;;;7.40;99.90;;;;;;6266888;22;20498;-83
2023/01/13 02:05:19;;;;;;;57.83;9.05;;;7.40;99.90;;;;;;6243319;22;20016;-83
2023/01/13 02:07:48;;;;;;;43.55;7.78;;;7.60;99.90;;;;;;6268349;22;20012;-83
2023/01/13 02:10:18;;;;;;;37.15;7.28;;;7.60;99.90;;;;;;6267865;22;20519;-84
2023/01/13 02:12:46;;;;;;;43.40;7.82;;;7.40;99.90;;;;;;6267081;22;20023;-84
2023/01/13 02:15:20;;;;;;;42.63;7.03;;;7.40;99.90;;;;;;6268331;22;20720;-84
2023/01/13 02:18:04;;;;;;;47.33;7.85;;;7.90;99.90;;;;;;6266888;22;20111;-83
2023/01/13 02:20:47;;;;;;;45.22;7.80;;;7.50;99.90;;;;;;6242908;22;20471;-84
2023/01/13 02:26:43;;;;;;;43.30;7.35;;;7.50;99.90;;;;;;6270730;22;20404;-83
2023/01/13 02:32:05;;;;;;;47.25;6.70;;;7.60;99.90;;;;;;6272098;22;20046;-83
2023/01/13 02:34:40;;;;;;;47.95;7.15;;;7.60;99.90;;;;;;6248594;22;20011;-84
2023/01/13 02:37:13;;;;;;;46.33;7.32;;;7.70;99.90;;;;;;6275267;22;20015;-84
2023/01/13 02:39:56;;;;;;;44.10;8.45;;;7.70;99.90;;;;;;6275747;22;20055;-83
2023/01/13 02:45:23;;;;;;;44.45;7.88;;;7.60;99.90;;;;;;6274286;22;20019;-84
2023/01/13 02:47:54;;;;;;;43.78;7.75;;;7.60;99.90;;;;;;6275391;22;20015;-83
2023/01/13 02:50:25;;;;;;;46.70;7.85;;;7.70;99.90;;;;;;6275661;22;20019;-83
2023/01/13 02:52:55;;;;;;;42.20;7.50;;;7.50;99.90;;;;;;6273365;22;20007;-83
2023/01/13 02:55:38;;;;;;;45.47;7.35;;;7.90;99.90;;;;;;6275782;22;20098;-83
2023/01/13 02:58:08;;;;;;;48.15;8.05;;;7.50;99.90;;;;;;6248972;22;20274;-84
2023/01/13 03:00:35;;;;;;;35.40;7.20;;;7.80;99.90;;;;;;6248316;22;20037;-83
2023/01/13 03:03:02;;;;;;;40.83;7.15;;;7.50;99.90;;;;;;6275530;22;20608;-84
2023/01/13 03:05:30;;;;;;;54.30;8.40;;;7.50;99.90;;;;;;6274297;22;20419;-83
2023/01/13 03:08:16;;;;;;;32.63;6.38;;;8.10;99.90;;;;;;6249280;22;20343;-83
2023/01/13 03:10:55;;;;;;;37.08;6.60;;;7.60;99.90;;;;;;6250134;22;20019;-84
2023/01/13 03:13:30;;;;;;;49.80;8.65;;;7.70;99.90;;;;;;6274118;22;20065;-84
2023/01/13 03:15:55;;;;;;;40.78;6.35;;;7.90;99.90;;;;;;6274896;22;20022;-83
2023/01/13 03:18:49;;;;;;;47.90;7.20;;;7.70;99.90;;;;;;6275934;22;20098;-84
2023/01/13 03:21:21;;;;;;;43.95;6.70;;;7.70;99.90;;;;;;6274539;22;20482;-83
2023/01/13 03:23:51;;;;;;;44.83;7.00;;;7.80;99.90;;;;;;6274546;22;20090;-83
2023/01/13 03:26:25;;;;;;;46.58;7.43;;;7.80;99.90;;;;;;6275215;22;20019;-83
2023/01/13 03:29:01;;;;;;;41.50;6.80;;;7.70;99.90;;;;;;6272984;22;20518;-83
2023/01/13 03:31:33;;;;;;;39.33;6.38;;;7.70;99.90;;;;;;6275301;22;20381;-84
2023/01/13 03:34:08;;;;;;;48.23;6.73;;;7.60;99.90;;;;;;6273864;22;20015;-83
2023/01/13 03:36:36;;;;;;;42.85;6.63;;;7.60;99.90;;;;;;6249590;22;20250;-83
2023/01/13 03:39:11;;;;;;;51.80;6.90;;;7.60;99.90;;;;;;6274426;22;20015;-84
2023/01/13 03:41:39;;;;;;;33.28;5.97;;;7.60;99.90;;;;;;6274605;22;20007;-83
2023/01/13 03:44:21;;;;;;;37.35;5.45;;;7.90;99.90;;;;;;6273394;22;20057;-83
2023/01/13 03:46:51;;;;;;;33.47;5.93;;;7.60;99.90;;;;;;6274264;22;20361;-83
2023/01/13 03:49:21;;;;;;;42.40;7.45;;;7.60;99.90;;;;;;6274283;22;20011;-83
2023/01/13 03:51:52;;;;;;;46.35;6.93;;;7.60;99.90;;;;;;6274314;22;20094;-83
2023/01/13 03:54:20;;;;;;;35.83;6.65;;;8.00;99.90;;;;;;6275306;22;20022;-84
2023/01/13 03:56:55;;;;;;;40.30;5.80;;;8.10;99.90;;;;;;6273104;22;20023;-84
2023/01/13 03:59:28;;;;;;;33.97;5.38;;;7.70;99.90;;;;;;6274912;22;20100;-84
2023/01/13 04:02:07;;;;;;;36.00;7.18;;;7.70;99.90;;;;;;6248293;22;20102;-83
2023/01/13 04:04:53;;;;;;;37.60;6.10;;;7.70;99.90;;;;;;6275164;22;20019;-83
2023/01/13 04:07:26;;;;;;;38.53;7.25;;;7.70;99.90;;;;;;6275495;22;20023;-84
2023/01/13 04:09:55;;;;;;;38.85;6.65;;;7.70;99.90;;;;;;6247504;22;20503;-84
2023/01/13 04:12:59;;;;;;;33.80;5.28;;;7.70;99.90;;;;;;6274865;22;20113;-83
2023/01/13 04:15:17;;;;;;;39.92;5.93;;;7.70;99.90;;;;;;6273674;22;20100;-84
2023/01/13 04:17:43;;;;;;;42.55;6.60;;;8.00;99.90;;;;;;6274050;22;20381;-84
2023/01/13 04:20:09;;;;;;;42.45;7.25;;;7.50;99.90;;;;;;6274969;22;20019;-84
2023/01/13 04:22:35;;;;;;;34.67;5.93;;;7.60;99.90;;;;;;6249816;22;20030;-84
2023/01/13 04:25:00;;;;;;;33.25;6.55;;;8.00;99.90;;;;;;6273422;22;20026;-83
2023/01/13 04:27:26;;;;;;;36.30;5.68;;;7.50;99.90;;;;;;6268361;22;20055;-83
2023/01/13 04:29:52;;;;;;;37.83;5.97;;;7.50;99.90;;;;;;6241940;22;20019;-83
2023/01/13 04:32:18;;;;;;;38.78;7.07;;;7.80;99.90;;;;;;6268998;22;20015;-83
2023/01/13 04:34:43;;;;;;;37.38;6.75;;;7.50;99.90;;;;;;6269501;22;20016;-84
2023/01/13 04:37:09;;;;;;;42.10;7.43;;;7.50;99.90;;;;;;6243693;22;20016;-84
2023/01/13 04:39:35;;;;;;;47.92;7.20;;;7.90;99.90;;;;;;6269454;22;20085;-84
2023/01/13 04:42:01;;;;;;;40.58;7.22;;;7.60;99.90;;;;;;6268564;22;20011;-84
2023/01/13 04:44:29;;;;;;;31.50;6.45;;;7.60;99.90;;;;;;6268034;22;20091;-84
2023/01/13 04:46:56;;;;;;;42.40;7.03;;;7.90;99.90;;;;;;6269227;22;20007;-84
2023/01/13 04:49:22;;;;;;;41.50;5.90;;;8.30;99.90;;;;;;6269586;22;20091;-84
2023/01/13 04:51:47;;;;;;;46.22;7.38;;;7.60;99.90;;;;;;6268045;22;20078;-83
2023/01/13 04:54:13;;;;;;;38.10;6.30;;;7.90;99.90;;;;;;6244552;22;20028;-83
2023/01/13 04:56:39;;;;;;;38.10;6.18;;;7.80;99.90;;;;;;6244029;22;20090;-84
2023/01/13 04:59:04;;;;;;;42.28;6.63;;;7.70;99.90;;;;;;6241734;22;20065;-83
2023/01/13 05:01:30;;;;;;;45.20;7.05;;;7.80;99.90;;;;;;6270146;22;20019;-83
2023/01/13 05:03:56;;;;;;;32.00;6.28;;;7.80;99.90;;;;;;6270583;22;20340;-83
2023/01/13 05:06:22;;;;;;;36.78;6.20;;;7.80;99.90;;;;;;6268917;22;20503;-83
2023/01/13 05:08:47;;;;;;;33.47;6.15;;;7.80;99.90;;;;;;6268560;22;20023;-83
2023/01/13 05:17:00;;;;;;;38.95;6.70;;;7.90;99.90;;;;;;6269520;22;20023;-83
2023/01/13 05:19:27;;;;;;;41.63;6.13;;;7.90;99.90;;;;;;6243439;22;20051;-83
2023/01/13 05:27:21;;;;;;;37.17;5.55;;;7.90;99.90;;;;;;6267010;22;20030;-84
2023/01/13 05:29:47;;;;;;;32.70;6.55;;;7.90;99.90;;;;;;6267758;22;20394;-84
2023/01/13 05:32:15;;;;;;;41.22;5.13;;;8.00;99.90;;;;;;6243518;22;20073;-83
2023/01/13 05:34:40;;;;;;;33.47;5.45;;;8.00;99.90;;;;;;6242197;22;20023;-83
2023/01/13 05:37:07;;;;;;;39.72;6.05;;;8.00;99.90;;;;;;6269929;22;20012;-84
2023/01/13 05:43:18;;;;;;;39.38;6.38;;;8.10;99.90;;;;;;6243719;22;20177;-84
2023/01/13 05:45:03;;;;;;;36.85;5.47;;;8.00;99.90;;;;;;6267829;22;20023;-84
2023/01/13 05:47:28;;;;;;;29.65;5.28;;;8.10;99.90;;;;;;6242302;22;20092;-84
2023/01/13 05:49:54;;;;;;;32.63;5.38;;;8.00;99.90;;;;;;6267943;22;20051;-84
2023/01/13 05:52:20;;;;;;;28.58;5.28;;;8.10;99.90;;;;;;6243447;22;20509;-84
2023/01/13 05:54:45;;;;;;;31.58;4.97;;;8.10;99.90;;;;;;6241094;22;20442;-83
2023/01/13 05:57:11;;;;;;;30.88;5.05;;;8.10;99.90;;;;;;6268665;22;20345;-83
2023/01/13 05:59:36;;;;;;;30.35;5.65;;;8.10;99.90;;;;;;6242687;22;20425;-83
2023/01/13 06:02:02;;;;;;;31.90;4.53;;;8.50;99.90;;;;;;6241570;22;20483;-83
2023/01/13 06:04:28;;;;;;;36.63;6.10;;;8.10;99.90;;;;;;6268593;22;20035;-84
2023/01/13 06:06:54;;;;;;;31.70;5.18;;;8.40;99.90;;;;;;6268196;22;20285;-83
2023/01/13 06:09:21;;;;;;;34.28;6.53;;;8.00;99.90;;;;;;6270588;22;20015;-84
2023/01/13 06:11:47;;;;;;;31.73;5.47;;;8.60;99.90;;;;;;6270255;22;20015;-84
2023/01/13 06:14:15;;;;;;;42.53;6.22;;;8.00;99.90;;;;;;6245234;22;20022;-83
2023/01/13 06:16:41;;;;;;;35.92;5.53;;;8.00;99.90;;;;;;6270548;22;20455;-83
2023/01/13 06:19:11;;;;;;;36.45;6.25;;;7.90;99.90;;;;;;6244218;22;20063;-83
2023/01/13 06:21:37;;;;;;;40.65;4.93;;;8.00;99.90;;;;;;6271320;22;20016;-83
2023/01/13 06:24:04;;;;;;;34.60;5.50;;;8.00;99.90;;;;;;6268590;22;20487;-84
2023/01/13 06:26:35;;;;;;;33.67;5.78;;;7.90;99.90;;;;;;6274115;22;20103;-84
2023/01/13 06:29:00;;;;;;;29.52;5.63;;;7.90;99.90;;;;;;6273826;22;20019;-83
2023/01/13 06:31:27;;;;;;;33.38;5.22;;;8.10;99.90;;;;;;6275054;22;20019;-84
2023/01/13 06:34:02;;;;;;;33.13;5.38;;;7.90;99.90;;;;;;6248646;22;20030;-83
2023/01/13 06:36:33;;;;;;;43.22;5.57;;;8.00;99.90;;;;;;6274842;22;20019;-83
2023/01/13 06:39:00;;;;;;;33.47;4.80;;;8.00;99.90;;;;;;6249607;22;20011;-83
2023/01/13 06:44:13;;;;;;;35.05;6.32;;;8.00;99.90;;;;;;6273295;22;20023;-84
2023/01/13 06:46:39;;;;;;;34.88;4.97;;;8.00;99.90;;;;;;6250138;22;20012;-83
2023/01/13 06:49:06;;;;;;;29.27;5.25;;;8.00;99.90;;;;;;6274949;22;20012;-83
2023/01/13 06:51:31;;;;;;;40.63;5.55;;;7.90;99.90;;;;;;6274485;22;20026;-82
2023/01/13 06:53:57;;;;;;;29.38;4.78;;;8.00;99.90;;;;;;6275296;22;20665;-83
2023/01/13 06:56:23;;;;;;;34.90;5.00;;;7.80;99.90;;;;;;6275272;22;20117;-83
2023/01/13 06:58:48;;;;;;;27.85;5.55;;;7.80;99.90;;;;;;6273275;22;20046;-83
2023/01/13 07:01:14;;;;;;;30.40;4.97;;;7.70;99.90;;;;;;6275903;22;20020;-83
2023/01/13 07:03:40;;;;;;;28.25;4.93;;;7.60;99.90;;;;;;6249741;22;20015;-83
2023/01/13 07:06:06;;;;;;;29.27;4.38;;;7.90;99.90;;;;;;6274201;22;20008;-82
2023/01/13 07:08:31;;;;;;;30.38;5.97;;;7.60;99.90;;;;;;6249273;22;20533;-82
2023/01/13 07:10:57;;;;;;;25.83;4.38;;;8.00;99.90;;;;;;6274824;22;20047;-83
2023/01/13 07:16:08;;;;;;;45.20;5.10;;;7.50;99.90;;;;;;6302754;22;20090;-83
2023/01/13 07:18:35;;;;;;;32.17;4.70;;;7.90;99.90;;;;;;6274530;22;20090;-82
2023/01/13 07:21:03;;;;;;;31.42;4.90;;;7.40;99.90;;;;;;6249217;22;20085;-83
2023/01/13 07:23:32;;;;;;;25.85;4.47;;;7.40;99.90;;;;;;6275113;22;20430;-83
2023/01/13 07:25:58;;;;;;;30.58;5.40;;;7.40;99.90;;;;;;6273878;22;20347;-83
2023/01/13 07:28:25;;;;;;;25.42;5.15;;;7.50;99.90;;;;;;6274117;22;20057;-83
2023/01/13 07:30:51;;;;;;;30.35;4.72;;;7.30;99.90;;;;;;6274042;22;20321;-83
2023/01/13 07:33:17;;;;;;;26.88;3.85;;;7.30;99.90;;;;;;6273889;22;20019;-83
2023/01/13 07:35:44;;;;;;;31.30;5.20;;;7.50;99.90;;;;;;6274756;22;20054;-84
2023/01/13 07:38:10;;;;;;;30.50;5.28;;;7.20;99.90;;;;;;6275270;22;20060;-83
2023/01/13 07:40:35;;;;;;;30.75;4.53;;;7.20;99.90;;;;;;6274341;22;20117;-84
2023/01/13 07:45:46;;;;;;;28.58;4.75;;;7.20;99.90;;;;;;6273772;22;20023;-84
2023/01/13 07:48:11;;;;;;;29.40;4.35;;;7.20;99.90;;;;;;6274058;22;20011;-85
2023/01/13 07:50:37;;;;;;;27.58;4.13;;;7.10;99.90;;;;;;6274769;22;20086;-86
2023/01/13 07:53:03;;;;;;;30.77;4.40;;;7.20;99.90;;;;;;6274749;22;20023;-85
2023/01/13 07:55:29;;;;;;;33.95;5.22;;;7.00;99.90;;;;;;6248466;22;20019;-85
2023/01/13 07:58:08;;;;;;;29.73;4.72;;;7.00;99.90;;;;;;6274105;22;20343;-84
2023/01/13 08:00:34;;;;;;;26.27;4.60;;;7.00;99.90;;;;;;6274761;22;20023;-85
2023/01/13 08:03:00;;;;;;;30.13;4.57;;;7.00;99.90;;;;;;6273012;22;20434;-85
2023/01/13 08:05:29;;;;;;;30.85;5.50;;;7.00;99.90;;;;;;6275281;22;20098;-84
2023/01/13 08:07:57;;;;;;;39.35;5.28;;;7.00;99.90;;;;;;6273475;22;20047;-85
2023/01/13 08:10:23;;;;;;;34.20;5.75;;;7.50;99.90;;;;;;6249537;22;20084;-84
2023/01/13 08:15:41;;;;;;;34.05;4.70;;;7.00;99.90;;;;;;6273425;22;20027;-84
2023/01/13 08:18:07;;;;;;;38.58;5.53;;;7.10;99.90;;;;;;6248726;22;20456;-84
2023/01/13 08:20:33;;;;;;;28.50;5.53;;;7.10;99.90;;;;;;6275132;22;20055;-85
2023/01/13 08:22:59;;;;;;;28.42;4.28;;;7.20;99.90;;;;;;6273155;22;20019;-85
2023/01/13 08:25:27;;;;;;;33.83;5.35;;;7.20;99.90;;;;;;6274830;22;20023;-85
2023/01/13 08:27:53;;;;;;;31.88;5.47;;;7.70;99.90;;;;;;6287716;22;20023;-85
2023/01/13 08:30:19;;;;;;;34.15;4.82;;;7.80;99.90;;;;;;6272904;22;20027;-83
2023/01/13 08:32:46;;;;;;;35.92;6.28;;;7.20;99.90;;;;;;6272926;22;20015;-83
2023/01/13 08:35:18;;;;;;;28.88;4.97;;;7.40;99.90;;;;;;6274929;22;20027;-86
2023/01/13 08:37:46;;;;;;;30.30;5.07;;;7.30;99.90;;;;;;6271867;22;20145;-85
2023/01/13 08:40:13;;;;;;;31.88;5.50;;;7.40;99.90;;;;;;6274386;22;20050;-84
2023/01/13 08:42:39;;;;;;;36.88;6.20;;;7.30;99.90;;;;;;6272600;22;20030;-85
2023/01/13 08:45:06;;;;;;;39.63;5.93;;;7.40;99.90;;;;;;6246464;22;20015;-85
2023/01/13 08:47:31;;;;;;;38.17;5.88;;;7.40;99.90;;;;;;6300116;22;20026;-85
2023/01/13 08:49:57;;;;;;;33.88;5.45;;;7.50;99.90;;;;;;6274290;22;20018;-85
2023/01/13 08:52:23;;;;;;;35.80;5.13;;;7.50;99.90;;;;;;6273817;22;20027;-84
2023/01/13 08:54:49;;;;;;;29.90;5.10;;;7.50;99.90;;;;;;6272843;22;20015;-84
2023/01/13 08:57:15;;;;;;;33.08;6.03;;;7.60;99.90;;;;;;6272320;22;20069;-84
2023/01/13 08:59:42;;;;;;;42.35;5.25;;;7.60;99.90;;;;;;6248204;22;20023;-84
2023/01/13 09:02:15;;;;;;;33.42;5.85;;;7.60;99.90;;;;;;6273490;22;20061;-84
2023/01/13 09:04:41;;;;;;;29.38;5.03;;;7.60;99.90;;;;;;6272901;22;20068;-84
2023/01/13 09:07:07;;;;;;;33.85;5.25;;;7.70;99.90;;;;;;6301302;22;20011;-84
2023/01/13 09:09:33;;;;;;;38.63;5.68;;;7.70;99.90;;;;;;6248487;22;20023;-84
2023/01/13 09:14:43;;;;;;;30.10;6.20;;;7.60;99.90;;;;;;6272408;22;20031;-83
2023/01/13 09:17:09;;;;;;;31.38;5.75;;;7.50;99.90;;;;;;6300132;22;20528;-84
2023/01/13 09:19:35;;;;;;;38.17;5.00;;;8.10;99.90;;;;;;6272151;22;20046;-84
2023/01/13 09:22:01;;;;;;;28.92;5.22;;;7.50;99.90;;;;;;6272749;22;20438;-84
2023/01/13 09:24:30;;;;;;;30.58;4.68;;;7.70;99.90;;;;;;6273442;22;20049;-85
2023/01/13 09:26:56;;;;;;;36.78;5.80;;;7.00;99.90;;;;;;6241282;22;20436;-84
2023/01/13 09:29:22;;;;;;;29.02;4.55;;;7.40;99.90;;;;;;6268499;22;20022;-84
2023/01/13 09:31:51;;;;;;;27.92;4.35;;;7.30;99.90;;;;;;6267077;22;20058;-85
2023/01/13 09:37:05;;;;;;;28.27;4.38;;;7.30;99.90;;;;;;6267509;22;20459;-84
2023/01/13 09:39:32;;;;;;;27.77;3.65;;;7.20;99.90;;;;;;6242201;22;20028;-84
2023/01/13 09:44:56;;;;;;;28.30;4.50;;;7.20;99.90;;;;;;6266003;22;20020;-84
2023/01/13 09:47:28;;;;;;;26.80;4.93;;;7.40;99.90;;;;;;6267943;22;20039;-84
2023/01/13 09:50:02;;;;;;;33.03;4.97;;;7.00;99.90;;;;;;6268089;22;20589;-84
2023/01/13 09:52:28;;;;;;;37.10;4.85;;;7.20;99.90;;;;;;6268049;22;20719;-85
2023/01/13 09:55:04;;;;;;;35.08;4.40;;;7.20;99.90;;;;;;6266673;22;20011;-84
2023/01/13 09:57:35;;;;;;;30.42;4.50;;;7.20;99.90;;;;;;6267330;22;20019;-85
2023/01/13 10:00:04;;;;;;;28.42;5.10;;;7.20;99.90;;;;;;6242144;22;20055;-85
2023/01/13 10:02:38;;;;;;;31.98;5.88;;;7.20;99.90;;;;;;6242496;22;20087;-84
2023/01/13 10:05:23;;;;;;;33.15;4.93;;;7.20;99.90;;;;;;6267155;22;20382;-84
2023/01/13 10:07:51;;;;;;;38.75;6.18;;;7.20;99.90;;;;;;6266552;22;20083;-85
2023/01/13 10:10:31;;;;;;;24.00;4.47;;;7.20;99.90;;;;;;6242893;22;20452;-85
2023/01/13 10:13:14;;;;;;;33.55;5.30;;;7.20;99.90;;;;;;6242261;22;20027;-86
2023/01/13 10:16:06;;;;;;;27.40;4.38;;;7.80;99.90;;;;;;6267629;22;20593;-85
2023/01/13 10:18:58;;;;;;;31.42;4.90;;;7.10;99.90;;;;;;6242615;22;20073;-84
2023/01/13 10:21:32;;;;;;;35.15;4.85;;;7.10;99.90;;;;;;6268224;22;20028;-84
2023/01/13 10:24:06;;;;;;;30.70;4.60;;;7.20;99.90;;;;;;6267169;22;20020;-84
2023/01/13 10:26:38;;;;;;;;;;;7.20;99.90;;;;;;6272127;22;20467;-84
2023/01/13 10:29:18;;;;;;;33.40;5.10;;;7.60;99.90;;;;;;6270859;22;19919;-84
2023/01/13 10:31:44;;;;;;;32.78;5.22;;;7.30;99.90;;;;;;6272501;22;20019;-84
2023/01/13 10:34:10;;;;;;;24.70;4.68;;;7.40;99.90;;;;;;6273449;22;20415;-84
2023/01/13 10:36:36;;;;;;;29.77;4.32;;;7.40;99.90;;;;;;6272612;22;20090;-83
2023/01/13 10:39:09;;;;;;;23.83;3.83;;;8.20;99.90;;;;;;6273385;22;20019;-83
2023/01/13 10:41:35;;;;;;;22.92;3.67;;;7.40;99.90;;;;;;6273372;22;20023;-84
2023/01/13 10:44:04;;;;;;;29.45;3.35;;;7.70;99.90;;;;;;6270982;22;20339;-84
2023/01/13 10:46:33;;;;;;;30.60;5.35;;;7.50;99.90;;;;;;6272788;22;20057;-84
2023/01/13 10:49:01;;;;;;;28.60;4.00;;;7.60;99.90;;;;;;6272834;22;20050;-85
2023/01/13 10:51:28;;;;;;;32.13;5.03;;;7.50;99.90;;;;;;6272466;22;20023;-84
2023/01/13 10:54:01;;;;;;;30.25;4.22;;;7.60;99.90;;;;;;6272745;22;20094;-84
2023/01/13 10:56:33;;;;;;;27.67;3.70;;;7.60;99.90;;;;;;6249234;22;20022;-84
2023/01/13 10:59:17;;;;;;;24.15;4.40;;;7.90;99.90;;;;;;6271827;22;20320;-83
2023/01/13 11:01:53;;;;;;;22.65;4.38;;;7.70;99.90;;;;;;6271793;22;20018;-83
2023/01/13 11:04:27;;;;;;;28.20;3.97;;;7.70;99.90;;;;;;6271564;22;20481;-83
2023/01/13 11:06:53;;;;;;;26.83;4.32;;;7.70;99.90;;;;;;6271557;22;20023;-84
2023/01/13 11:09:21;;;;;;;30.58;5.35;;;7.70;99.90;;;;;;6272661;22;20455;-84
2023/01/13 11:11:54;;;;;;;32.38;4.85;;;7.70;99.90;;;;;;6270200;22;20054;-84
2023/01/13 11:14:38;;;;;;;26.30;3.95;;;7.70;99.90;;;;;;6272058;22;20340;-84
2023/01/13 11:17:25;;;;;;;28.25;4.68;;;7.70;99.90;;;;;;6269001;22;20514;-84
2023/01/13 11:20:08;;;;;;;35.63;4.50;;;7.80;99.90;;;;;;6270558;22;20019;-84
2023/01/13 11:22:43;;;;;;;31.27;4.40;;;7.90;99.90;;;;;;6272404;22;20024;-84
2023/01/13 11:25:23;;;;;;;30.63;4.47;;;7.80;99.90;;;;;;6271150;22;20051;-84
2023/01/13 11:27:58;;;;;;;22.70;4.00;;;7.80;99.90;;;;;;6271038;22;20019;-84
2023/01/13 11:30:46;;;;;;;25.50;5.15;;;8.20;99.90;;;;;;6271889;22;20030;-85
2023/01/13 11:33:13;;;;;;;24.67;4.20;;;7.80;99.90;;;;;;6271420;22;20025;-85
2023/01/13 11:35:55;;;;;;;29.95;4.65;;;7.80;99.90;;;;;;6271693;22;20034;-84
2023/01/13 11:38:32;;;;;;;26.63;4.03;;;8.20;99.90;;;;;;6246938;22;20027;-84
2023/01/13 11:41:11;;;;;;;23.98;3.88;;;7.80;99.90;;;;;;6270601;22;20019;-85
2023/01/13 11:43:54;;;;;;;20.10;3.42;;;7.90;99.90;;;;;;6271150;22;20015;-84
2023/01/13 11:46:24;;;;;;;25.20;3.35;;;7.90;99.90;;;;;;6271248;22;20108;-85
2023/01/13 11:48:50;;;;;;;24.58;3.40;;;8.00;99.90;;;;;;6271865;22;20347;-85
2023/01/13 11:51:27;;;;;;;25.63;3.85;;;8.00;99.90;;;;;;6246748;22;20023;-85
2023/01/13 11:54:09;;;;;;;30.17;3.83;;;8.00;99.90;;;;;;6245011;22;20476;-85
2023/01/13 11:56:37;;;;;;;20.75;4.00;;;8.00;99.90;;;;;;6272437;22;20116;-84
2023/01/13 11:59:18;;;;;;;25.08;4.07;;;8.10;99.90;;;;;;6269857;22;20549;-84
2023/01/13 12:01:43;;;;;;;18.42;2.85;;;8.20;99.90;;;;;;6244599;22;20024;-85
2023/01/13 12:04:34;;;;;;;19.65;4.03;;;8.20;99.90;;;;;;6272098;22;20026;-85
2023/01/13 12:07:13;;;;;;;15.77;2.97;;;8.20;99.90;;;;;;6269812;22;20072;-84
2023/01/13 12:10:08;;;;;;;23.38;3.42;;;8.20;99.90;;;;;;6272521;22;20019;-86
2023/01/13 12:16:31;;;;;;;20.42;3.17;;;8.20;99.90;;;;;;6244169;22;20463;-87
2023/01/13 12:19:20;;;;;;;17.10;3.20;;;8.10;99.90;;;;;;6272852;22;20044;-88
2023/01/13 12:21:57;;;;;;;18.52;2.92;;;8.10;99.90;;;;;;6271800;22;20130;-87
2023/01/13 12:24:30;;;;;;;19.20;3.40;;;7.90;99.90;;;;;;6246844;22;20045;-87
2023/01/13 12:27:05;;;;;;;;;;;8.10;99.90;;;;;;6266491;22;20022;-88
2023/01/13 12:32:48;;;;;;;25.02;4.57;;;8.20;99.90;;;;;;6188562;22;20038;-87
2023/01/13 12:35:46;;;;;;;19.38;3.08;;;8.30;99.90;;;;;;6265489;22;20547;-86
2023/01/13 12:38:23;;;;;;;13.38;2.67;;;8.20;99.90;;;;;;6241176;22;20345;-88
2023/01/13 12:41:04;;;;;;;12.30;2.50;;;8.30;99.90;;;;;;6265658;22;20454;-88
2023/01/13 12:46:18;;;;;;;18.48;3.53;;;8.30;99.90;;;;;;6266656;22;20020;-89
2023/01/13 12:48:58;;;;;;;15.52;2.75;;;8.40;99.90;;;;;;6244146;22;20024;-88
2023/01/13 12:51:27;;;;;;;19.25;2.78;;;8.40;99.90;;;;;;6244019;22;20403;-87
2023/01/13 12:53:55;;;;;;;18.75;2.47;;;8.50;99.90;;;;;;6268573;22;20014;-86
2023/01/13 12:56:42;;;;;;;16.50;3.30;;;8.50;99.90;;;;;;6269050;22;20340;-87
2023/01/13 12:59:17;;;;;;;16.63;2.92;;;8.60;99.90;;;;;;6243151;22;20020;-88
2023/01/13 13:01:46;;;;;;;19.83;2.92;;;8.50;99.90;;;;;;6244029;22;20015;-86
2023/01/13 13:04:16;;;;;;;22.52;3.28;;;8.50;99.90;;;;;;6244180;22;20084;-87
2023/01/13 13:06:48;;;;;;;18.73;3.38;;;8.70;99.90;;;;;;6244371;22;20018;-88
2023/01/13 13:09:25;;;;;;;20.40;3.00;;;8.60;99.90;;;;;;6246293;22;20325;-86
2023/01/13 13:15:24;;;;;;;19.33;3.47;;;8.60;99.90;;;;;;6268645;22;20111;-86
2023/01/13 13:18:19;;;;;;;13.15;2.10;;;8.70;99.90;;;;;;6241885;22;20066;-87
2023/01/13 13:21:10;;;;;;;;;;;;;;;;;;;;;
2023/01/13 13:23:48;;;;;;;18.17;2.55;;;8.60;99.90;;;;;;6268862;22;20016;-86
2023/01/13 13:26:32;;;;;;;;;;;;;;;;;;;;;
2023/01/13 13:32:06;;;;;;;14.05;2.35;;;8.50;99.90;;;;;;6267933;22;20024;-87
2023/01/13 13:34:38;;;;;;;18.23;2.75;;;8.70;99.90;;;;;;6268476;22;20047;-87
2023/01/13 13:37:05;;;;;;;17.08;2.65;;;8.70;99.90;;;;;;6267788;22;20035;-87
2023/01/13 13:46:45;;;;;;;21.02;2.80;;;8.60;99.90;;;;;;6268630;22;20015;-87
2023/01/13 13:48:30;;;;;;;18.02;3.20;;;8.40;99.90;;;;;;6268507;22;20030;-86
2023/01/13 13:51:01;;;;;;;21.92;3.10;;;8.40;99.90;;;;;;6267658;22;20024;-84
2023/01/13 13:53:32;;;;;;;14.25;2.30;;;8.40;99.90;;;;;;6241841;22;20019;-84
2023/01/13 13:56:00;;;;;;;17.48;2.35;;;8.30;99.90;;;;;;6242034;22;20094;-85
2023/01/13 13:58:28;;;;;;;19.48;2.47;;;8.30;99.90;;;;;;6272075;22;20015;-85
2023/01/13 14:01:00;;;;;;;19.63;2.55;;;8.30;99.90;;;;;;6239710;22;20467;-84
2023/01/13 14:03:32;;;;;;;16.23;2.63;;;8.40;99.90;;;;;;6268953;22;20428;-84
2023/01/13 14:06:25;;;;;;;19.33;3.08;;;8.00;99.90;;;;;;6268843;22;20019;-84
2023/01/13 14:09:32;;;;;;;22.60;3.30;;;8.30;99.90;;;;;;6268055;22;20079;-85
2023/01/13 14:12:13;;;;;;;15.40;2.47;;;8.40;99.90;;;;;;6241805;22;20016;-84
2023/01/13 14:14:44;;;;;;;12.80;2.30;;;8.40;99.90;;;;;;6266823;22;20091;-84